Terminal Aerodrome Forecast
Issued by NWS

Home | Current Version | Previous Version | Text Only | Print | Product List | Glossary On
Versions: 1 2 3 4 5 6 7 8 9 10 11 12 13 14 15 16 17
174
FTUS46 KEKA 070534
TAFCEC
TAF
KCEC 070534Z 0706/0806 07004KT P6SM SCT250
     FM071500 11007KT P6SM SCT120 BKN250
     FM072000 16010KT P6SM VCSH SCT050 SCT100 OVC250
     FM072300 14010KT P6SM -RA BKN050 OVC100=

USA.gov is the U.S. government's official web portal to all federal, state and local government web resources and services.